Tiempo atmosférico en la estación meteorológica de Hermigua, Santa Cruz de Tenerife (252 m.)



Fecha
DESCASC
Temp. máxima en grados centígrados (hora)
DESCASC
Temp. mínima en grados centígrados (hora)
DESCASC
Temp. media en grados centígrados
DESCASC
Racha de viento máxima en m/sg (hora)
DESCASC
Velocidad máxima media en intervalos de 10 minutos(hora)
DESCASC
Precipitaciones diarias en mm
DESCASC
Precipitaciones de 00:00 a 06:00 en mm
DESCASC
Precipitaciones de 06:00 a 12:00 en mm
DESCASC
Precipitaciones de 12:00 a 18:00 en mm
DESCASC
Precipitaciones de 18:00 a 24:00 en mm
DESCASC
23-06-2019 27.7 (18:20) 17.5 (07:10) 22.6 6.39 (12:40) 3.61 (12:40) 0 0 0 0 0
22-06-2019 24.2 (16:00) 18 (01:30) 21.1 7.5 (19:00) 3.61 (16:10) 0 0 0 0 0
21-06-2019 23.5 (15:40) 18.7 (05:20) 21.1 8.06 (09:20) 3.61 (14:30) 0 0 0 0 0
20-06-2019 23.4 (15:50) 16.4 (00:00) 19.9 8.33 (14:20) 4.17 (14:40) 0 0 0 0 0
19-06-2019 24.5 (16:00) 16.1 (00:00) 20.3 8.06 (16:20) 3.61 (16:20) 0 0 0 0 0
18-06-2019 23.6 (14:20) 16.5 (00:00) 20.1 5.56 (12:40) 2.5 (14:30) 0 0 0 0 0
17-06-2019 24.1 (17:00) 13.3 (00:00) 18.7 5.83 (14:10) 2.78 (13:00) 0 0 0 0 0
16-06-2019 22.9 (15:40) 12 (00:00) 17.4 5.56 (14:10) 3.33 (14:20) 0 0 0 0 0
15-06-2019 20.8 (15:10) 14.2 (00:00) 17.5 5.83 (15:30) 2.5 (09:50) 0 0 0 0 0
14-06-2019 21.1 (14:00) 15.5 (00:00) 18.3 6.39 (12:40) 3.06 (16:20) 0 0 0 0 0
13-06-2019 22.1 (15:40) 16.8 (00:00) 19.4 7.78 (07:50) 3.89 (07:50) 0 0 0 0 0
12-06-2019 21 (17:50) 16.5 (00:00) 18.8 7.5 (10:20) 3.89 (19:20) 4.8 0 4.8 0 0
11-06-2019 22.2 (14:30) 17.2 (00:00) 19.7 10 (14:10) 3.89 (14:50) 0 0 0 0 0
10-06-2019 22.3 (15:50) 17.4 (00:00) 19.8 8.33 (23:40) 3.89 (20:40) 0 0 0 0 0
09-06-2019 21.9 (15:30) 16.8 (00:00) 19.3 8.89 (08:20) 3.89 (02:40) 0 0 0 0 0
08-06-2019 22 (14:20) 17.6 (00:00) 19.8 7.22 (05:00) 3.33 (20:30) 0 0 0 0 0
07-06-2019 22.1 (14:20) 16.9 (00:00) 19.5 7.22 (18:50) 3.33 (18:10) 0 0 0 0 0
06-06-2019 20.8 (12:40) 17.2 (00:00) 19 8.33 (06:50) 3.89 (06:20) 0 0 0 0 0
05-06-2019 22.4 (15:00) 17.7 (00:00) 20.1 8.06 (23:00) 3.61 (23:00) 0 0 0 0 0
04-06-2019 24.1 (11:40) 15.6 (00:00) 19.9 7.22 (15:00) 3.61 (14:40) 0 0 0 0 0
03-06-2019 26.2 (11:40) 15.7 (00:00) 21 6.39 (16:10) 3.61 (13:40) 0 0 0 0 0
02-06-2019 23.5 (16:40) 15.6 (00:00) 19.6 6.94 (14:00) 3.33 (15:50) 0 0 0 0 0
01-06-2019 22 (16:30) 14.1 (00:00) 18.1 6.39 (17:00) 3.33 (16:20) 0 0 0 0 0
31-05-2019 22.3 (17:10) 13.8 (00:00) 18 8.33 (14:40) 3.61 (16:00) 0 0 0 0 0
30-05-2019 22 (17:40) 16.4 (00:00) 19.2 6.94 (13:10) 3.61 (13:20) 0 0 0 0 0
29-05-2019 21.3 (16:00) 16.6 (00:00) 18.9 6.39 (13:50) 3.06 (15:20) 0 0 0 0 0
28-05-2019 22.4 (16:50) 17.2 (00:00) 19.8 6.67 (13:50) 3.06 (14:00) 0 0 0 0 0

Gráficas

Temp. máximas Temp. mínimas Temp. medias Precipitaciones Rachas de viento máximas Velocidades máximas media en intervalos de 10 minutos

Datos horarios

Fecha y hora oficial Temperatura (ºC) Velocidad del viento (km/h) Dirección del viento Racha (km/h) Dirección de racha Precipitación (mm) Presión (hPa) Tendencia (hPa) Humedad (%)
2019-06-26 23:00:00 19.6 8 Nordeste 19 Nordeste 0 -- -- 80
2019-06-26 22:00:00 19.9 9 Norte 21 Nordeste 0 -- -- 78
2019-06-26 21:00:00 20 8 Nordeste 23 Nordeste 0 -- -- 75
2019-06-26 20:00:00 20.3 11 Nordeste 23 Nordeste 0 -- -- 73
2019-06-26 19:00:00 20.8 10 Nordeste 22 Nordeste 0 -- -- 77
2019-06-26 18:00:00 21.4 8 Norte 28 Nordeste 0 -- -- 71
2019-06-26 17:00:00 21.4 8 Nordeste 24 Nordeste 0 -- -- 73
2019-06-26 16:00:00 21.4 8 Nordeste 24 Nordeste 0 -- -- 74
2019-06-26 15:00:00 21.5 8 Norte 22 Nordeste 0 -- -- 73
2019-06-26 14:00:00 21 9 Nordeste 21 Norte 0 -- -- 75
2019-06-26 13:00:00 21 9 Nordeste 22 Norte 0 -- -- 75
2019-06-26 12:00:00 21.2 8 Nordeste 21 Nordeste 0 -- -- 73
2019-06-26 11:00:00 21.1 10 Nordeste 22 Nordeste 0 -- -- 72
2019-06-26 10:00:00 20.7 8 Norte 22 Nordeste 0 -- -- 73
2019-06-26 09:00:00 20 7 Nordeste 20 Nordeste 0 -- -- 77
2019-06-26 08:00:00 19.4 6 Nordeste 17 Nordeste 0 -- -- 76
2019-06-26 07:00:00 19.2 5 Nordeste 18 Nordeste 0 -- -- 78
2019-06-26 06:00:00 19.2 8 Nordeste 21 Nordeste 0 -- -- 76
2019-06-26 05:00:00 19.3 7 Nordeste 18 Norte 0 -- -- 79
2019-06-26 04:00:00 19.2 5 Sur 16 Nordeste 0 -- -- 75
2019-06-26 03:00:00 19.3 4 Sudoeste 10 Sudeste 0 -- -- 76
2019-06-26 02:00:00 19.5 3 Sudeste 19 Norte 0 -- -- 79
2019-06-26 01:00:00 19.7 6 Norte 24 Nordeste 0 -- -- 81
2019-06-26 00:00:00 19.8 7 Norte 25 Nordeste 0 -- -- 80
2019-06-25 23:00:00 19.9 6 Norte 18 Nordeste 0 -- -- 82
2019-06-25 22:00:00 20.3 5 Este 13 Nordeste 0 -- -- 81
2019-06-25 21:00:00 20.4 6 Este 18 Nordeste 0 -- -- 82
2019-06-25 20:00:00 20.7 8 Norte 18 Nordeste 0 -- -- 80
2019-06-25 19:00:00 20.9 10 Nordeste 25 Nordeste 0 -- -- 80
2019-06-25 18:00:00 21.4 5 Nordeste 16 Nordeste 0 -- -- 82
2019-06-25 17:00:00 21.9 7 Nordeste 18 Norte 0 -- -- 79
2019-06-25 16:00:00 21.4 8 Nordeste 16 Nordeste 0 -- -- 74
2019-06-25 15:00:00 21.7 6 Nordeste 18 Nordeste 0 -- -- 78
2019-06-25 14:00:00 22.2 8 Nordeste 23 Nordeste 0 -- -- 74
2019-06-25 13:00:00 23.6 9 Nordeste 23 Nordeste 0 -- -- 72
2019-06-25 12:00:00 22.9 9 Norte 20 Norte 0 -- -- 72
2019-06-25 11:00:00 21.1 4 Este 21 Nordeste 0 -- -- 80
2019-06-25 10:00:00 20.5 4 Norte 13 Nordeste 0 -- -- 91
2019-06-25 09:00:00 20 3 Nordeste 9 Nordeste 0 -- -- 93
2019-06-25 08:00:00 19.9 2 Sur 8 Sur 0.4 -- -- 96
2019-06-25 07:00:00 20 2 Sudoeste 4 Sudeste 0 -- -- 95
2019-06-25 06:00:00 20.1 2 Sur 10 Sudeste 0.2 -- -- 94
2019-06-25 05:00:00 20.5 4 Este 11 Sudeste 0 -- -- 91
2019-06-25 04:00:00 20.5 2 Este 5 Nordeste 0 -- -- 93
2019-06-25 03:00:00 20.6 2 Sudeste 4 Sudeste 0 -- -- 94
2019-06-25 02:00:00 20.9 2 Este 6 Norte 0 -- -- 93
2019-06-25 01:00:00 21.2 4 Nordeste 8 Norte 0 -- -- 90
2019-06-25 00:00:00 21.1 2 Sur 7 Nordeste 0 -- -- 87
2019-06-24 23:00:00 21.2 3 Este 5 Nordeste 0 -- -- 85
2019-06-24 22:00:00 21.8 2 Nordeste 5 Nordeste 0 -- -- 83
2019-06-24 21:00:00 21.8 4 Nordeste 8 Este 0 -- -- 83
2019-06-24 20:00:00 22.4 5 Nordeste 12 Nordeste 0 -- -- 80
2019-06-24 19:00:00 24.8 5 Nordeste 18 Norte 0 -- -- 70
2019-06-24 18:00:00 25.4 8 Norte 18 Norte 0 -- -- 65
2019-06-24 17:00:00 25.1 10 Norte 19 Noroeste 0 -- -- 66
2019-06-24 16:00:00 25.6 11 Norte 21 Norte 0 -- -- 64
2019-06-24 15:00:00 25 9 Norte 20 Norte 0 -- -- 68
2019-06-24 14:00:00 24.8 10 Norte 18 Norte 0 -- -- 69
2019-06-24 13:00:00 23.5 6 Nordeste 17 Noroeste 0 -- -- 75
2019-06-24 12:00:00 24 8 Norte 19 Norte 0 -- -- 69
2019-06-24 11:00:00 23.1 7 Nordeste 15 Nordeste 0 -- -- 75
2019-06-24 10:00:00 22.3 6 Nordeste 12 Noroeste 0 -- -- 81
2019-06-24 09:00:00 21.4 3 Norte 7 Nordeste 0 -- -- 81
2019-06-24 08:00:00 17.8 0 Calma 5 Sudeste 0 -- -- 92
2019-06-24 07:00:00 18.1 3 Este 7 Sur 0 -- -- 88
2019-06-24 06:00:00 18.5 5 Sur 9 Sur 0 -- -- 87
2019-06-24 05:00:00 18.8 3 Sur 6 Nordeste 0 -- -- 87
2019-06-24 04:00:00 19.6 3 Este 6 Nordeste 0 -- -- 86
2019-06-24 03:00:00 20.8 2 Nordeste 6 Nordeste 0 -- -- 84
2019-06-24 02:00:00 21.3 2 Nordeste 6 Sudeste 0 -- -- 83
2019-06-24 01:00:00 21.6 2 Sur 9 Sudeste 0 -- -- 80
2019-06-24 00:00:00 22 3 Sudeste 12 Nordeste 0 -- -- 77
2019-06-23 23:00:00 22.1 7 Nordeste 19 Sudoeste 0 -- -- 75
2019-06-23 22:00:00 22.7 3 Norte 12 Nordeste 0 -- -- 73
2019-06-23 21:00:00 24 3 Nordeste 13 Nordeste 0 -- -- 66
2019-06-23 20:00:00 25.6 5 Nordeste 16 Norte 0 -- -- 60
2019-06-23 19:00:00 26.8 9 Nordeste 17 Nordeste 0 -- -- 53
2019-06-23 18:00:00 27.3 5 Norte 13 Noroeste 0 -- -- 53
2019-06-23 17:00:00 25.9 8 Nordeste 16 Norte 0 -- -- 54
2019-06-23 16:00:00 25.1 9 Norte 20 Este 0 -- -- 67
2019-06-23 15:00:00 24.6 10 Norte 21 Norte 0 -- -- 66
2019-06-23 14:00:00 23.8 10 Norte 20 Norte 0 -- -- 65
2019-06-23 13:00:00 24.4 9 Nordeste 23 Nordeste 0 -- -- 61
2019-06-23 12:00:00 23.4 8 Nordeste 18 Nordeste 0 -- -- 67
2019-06-23 11:00:00 23.2 6 Norte 16 Noroeste 0 -- -- 68
2019-06-23 10:00:00 23 4 Norte 10 Norte 0 -- -- 66
2019-06-23 09:00:00 21.6 3 Norte 9 Nordeste 0 -- -- 72
2019-06-23 08:00:00 17.5 3 Sudeste 9 Sur 0 -- -- 83
2019-06-23 07:00:00 17.7 5 Sur 8 Sudeste 0 -- -- 83
2019-06-23 06:00:00 19.7 5 Nordeste 12 Sudeste 0 -- -- 78
2019-06-23 05:00:00 19.5 0 Calma 6 Este 0 -- -- 80
2019-06-23 04:00:00 19.1 3 Sudeste 6 Sudeste 0 -- -- 80
2019-06-23 03:00:00 19.9 4 Este 11 Sudeste 0 -- -- 77
2019-06-23 02:00:00 19.2 5 Sur 14 Nordeste 0 -- -- 77
2019-06-23 01:00:00 18.9 4 Este 10 Sudeste 0 -- -- 79
2019-06-23 00:00:00 19.3 4 Sudeste 10 Sudeste 0 -- -- 77
2019-06-22 23:00:00 19.9 4 Sur 9 Sur 0 -- -- 75
2019-06-22 22:00:00 20.3 3 Sur 19 Este 0 -- -- 75
2019-06-22 21:00:00 20.7 8 Este 18 Este 0 -- -- 73
2019-06-22 20:00:00 21.7 5 Sudeste 26 Este 0 -- -- 67
2019-06-22 19:00:00 23.1 8 Este 27 Sudeste 0 -- -- 61
2019-06-22 18:00:00 23.6 11 Norte 26 Norte 0 -- -- 56
2019-06-22 17:00:00 23.6 12 Nordeste 26 Norte 0 -- -- 60
2019-06-22 16:00:00 24.2 11 Norte 23 Norte 0 -- -- 56
2019-06-22 15:00:00 23.5 11 Nordeste 25 Nordeste 0 -- -- 59
2019-06-22 14:00:00 22.3 12 Nordeste 23 Nordeste 0 -- -- 65
2019-06-22 13:00:00 22.5 10 Nordeste 20 Este 0 -- -- 59
2019-06-22 12:00:00 21.9 12 Nordeste 22 Nordeste 0 -- -- 64
2019-06-22 11:00:00 21.9 9 Nordeste 20 Nordeste 0 -- -- 64
2019-06-22 10:00:00 21.2 10 Nordeste 23 Nordeste 0 -- -- 69
2019-06-22 09:00:00 19.1 6 Norte 19 Nordeste 0 -- -- 80
2019-06-22 08:00:00 18.8 4 Norte 15 Nordeste 0 -- -- 82
2019-06-22 07:00:00 18.3 3 Nordeste 14 Nordeste 0 -- -- 84
2019-06-22 06:00:00 18.7 4 Nordeste 12 Nordeste 0 -- -- 84
2019-06-22 05:00:00 18.5 3 Norte 16 Este 0 -- -- 79
2019-06-22 04:00:00 18.5 6 Nordeste 18 Nordeste 0 -- -- 79
2019-06-22 03:00:00 18.7 5 Este 15 Este 0 -- -- 79
2019-06-22 02:00:00 18.2 0 Calma 12 Oeste 0 -- -- 79
2019-06-22 01:00:00 18.3 3 Sur 12 Oeste 0 -- -- 76
2019-06-22 00:00:00 19 5 Norte 15 Este 0 -- -- 78
2019-06-21 23:00:00 18.9 5 Sur 12 Sudoeste 0 -- -- 77
2019-06-21 22:00:00 19.4 2 Nordeste 15 Norte 0 -- -- 76
2019-06-21 21:00:00 19.9 4 Nordeste 15 Sudeste 0 -- -- 71
2019-06-21 20:00:00 21 5 Nordeste 18 Nordeste 0 -- -- 63
2019-06-21 19:00:00 22.4 8 Nordeste 21 Nordeste 0 -- -- 55
2019-06-21 18:00:00 22.1 10 Nordeste 20 Norte 0 -- -- 60
2019-06-21 17:00:00 22.1 9 Nordeste 22 Nordeste 0 -- -- 70
2019-06-21 16:00:00 22.9 12 Nordeste 26 Este 0 -- -- 66
2019-06-21 15:00:00 23.3 10 Nordeste 23 Norte 0 -- -- 66
2019-06-21 14:00:00 22.7 10 Nordeste 23 Norte 0 -- -- 68
2019-06-21 13:00:00 22.6 9 Nordeste 21 Norte 0 -- -- 67
2019-06-21 12:00:00 22 9 Norte 22 Nordeste 0 -- -- 73
2019-06-21 11:00:00 21.1 10 Nordeste 21 Norte 0 -- -- 77
2019-06-21 10:00:00 19.9 8 Nordeste 29 Norte 0 -- -- 82
2019-06-21 09:00:00 19.4 8 Nordeste 22 Norte 0 -- -- 85
2019-06-21 08:00:00 18.9 9 Nordeste 21 Nordeste 0 -- -- 85
2019-06-21 07:00:00 18.8 8 Nordeste 22 Nordeste 0 -- -- 88
2019-06-21 06:00:00 18.7 7 Nordeste 15 Norte 0 -- -- 83
2019-06-21 05:00:00 18.9 8 Nordeste 20 Nordeste 0 -- -- 87
2019-06-21 04:00:00 19.1 5 Nordeste 14 Nordeste 0 -- -- 86
2019-06-21 03:00:00 19.1 5 Nordeste 17 Norte 0 -- -- 86
2019-06-21 02:00:00 19.2 7 Nordeste 20 Norte 0 -- -- 87
2019-06-21 01:00:00 19.5 6 Norte 24 Nordeste 0 -- -- 86
2019-06-21 00:00:00 19.7 9 Nordeste 22 Norte 0 -- -- 87
2019-06-20 23:00:00 19.6 9 Norte 17 Nordeste 0 -- -- 84
2019-06-20 22:00:00 19.8 10 Nordeste 19 Norte 0 -- -- 87
2019-06-20 21:00:00 20.1 7 Nordeste 24 Nordeste 0 -- -- 83
2019-06-20 20:00:00 20.2 9 Norte 22 Nordeste 0 -- -- 81
2019-06-20 19:00:00 21 10 Nordeste 23 Nordeste 0 -- -- 76
2019-06-20 18:00:00 21.9 11 Nordeste 22 Nordeste 0 -- -- 73
2019-06-20 17:00:00 22.1 10 Nordeste 21 Norte 0 -- -- 73
2019-06-20 16:00:00 23.1 12 Nordeste 25 Nordeste 0 -- -- 69
2019-06-20 15:00:00 22.9 12 Nordeste 30 Este 0 -- -- 70
2019-06-20 14:00:00 23.2 12 Nordeste 26 Nordeste 0 -- -- 67
2019-06-20 13:00:00 22.9 11 Nordeste 25 Nordeste 0 -- -- 68
2019-06-20 12:00:00 22.4 11 Nordeste 21 Norte 0 -- -- 68
2019-06-20 11:00:00 22 9 Nordeste 19 Norte 0 -- -- 73
2019-06-20 10:00:00 20.3 8 Nordeste 20 Norte 0 -- -- 79
2019-06-20 09:00:00 19.8 8 Nordeste 23 Nordeste 0 -- -- 82
2019-06-20 08:00:00 18.9 4 Nordeste 18 Norte 0 -- -- 83
2019-06-20 07:00:00 18.6 9 Nordeste 20 Norte 0 -- -- 86
2019-06-20 06:00:00 18.9 4 Nordeste 7 Sudeste 0 -- -- 85
2019-06-20 05:00:00 18.2 0 Calma 6 Sudoeste 0 -- -- 82
2019-06-20 04:00:00 17.7 2 Este 13 Sudoeste 0 -- -- 82
2019-06-20 03:00:00 17.1 2 Este 9 Sudoeste 0 -- -- 85
2019-06-20 02:00:00 17.3 4 Sudeste 8 Sur 0 -- -- 82
2019-06-20 01:00:00 16.8 4 Sudoeste 11 Noroeste 0 -- -- 81
2019-06-20 00:00:00 16.6 4 Sur 6 Sudeste 0 -- -- 84
2019-06-19 23:00:00 17.8 4 Sur 8 Sudeste 0 -- -- 80
2019-06-19 22:00:00 19.5 4 Este 8 Este 0 -- -- 81
2019-06-19 21:00:00 20 4 Este 15 Norte 0 -- -- 79
2019-06-19 20:00:00 20.8 8 Nordeste 18 Norte 0 -- -- 76
2019-06-19 19:00:00 22.5 7 Nordeste 23 Nordeste 0 -- -- 70
2019-06-19 18:00:00 21.7 5 Norte 18 Norte 0 -- -- 76
2019-06-19 17:00:00 22 10 Nordeste 29 Nordeste 0 -- -- 75
2019-06-19 16:00:00 24.5 12 Norte 22 Nordeste 0 -- -- 67
2019-06-19 15:00:00 23.7 10 Nordeste 23 Nordeste 0 -- -- 65
2019-06-19 14:00:00 24.1 8 Nordeste 22 Nordeste 0 -- -- 63
2019-06-19 13:00:00 24.1 11 Nordeste 23 Nordeste 0 -- -- 62
2019-06-19 12:00:00 23.3 12 Nordeste 26 Norte 0 -- -- 61
2019-06-19 11:00:00 -- -- -- -- -- -- -- -- --
2019-06-19 10:00:00 -- -- -- -- -- -- -- -- --
2019-06-19 09:00:00 -- -- -- -- -- -- -- -- --
2019-06-19 08:00:00 -- -- -- -- -- -- -- -- --
2019-06-19 07:00:00 -- -- -- -- -- -- -- -- --
2019-06-19 06:00:00 -- -- -- -- -- -- -- -- --
2019-06-19 05:00:00 -- -- -- -- -- -- -- -- --
2019-06-19 04:00:00 -- -- -- -- -- -- -- -- --
2019-06-19 03:00:00 -- -- -- -- -- -- -- -- --
2019-06-19 02:00:00 -- -- -- -- -- -- -- -- --
2019-06-19 01:00:00 -- -- -- -- -- -- -- -- --
2019-06-19 00:00:00 -- -- -- -- -- -- -- -- --
2019-06-18 23:00:00 -- -- -- -- -- -- -- -- --
2019-06-18 22:00:00 -- -- -- -- -- -- -- -- --
2019-06-18 21:00:00 -- -- -- -- -- -- -- -- --
2019-06-18 20:00:00 -- -- -- -- -- -- -- -- --
2019-06-18 19:00:00 -- -- -- -- -- -- -- -- --
2019-06-18 18:00:00 21.5 6 Nordeste 15 Norte 0 -- -- 82
2019-06-18 17:00:00 22 6 Norte 13 Norte 0 -- -- 77
2019-06-18 16:00:00 22.4 6 Norte 14 Norte 0 -- -- 75
2019-06-18 15:00:00 22.7 7 Norte 18 Norte 0 -- -- 72
2019-06-18 14:00:00 23.2 6 Norte 17 Norte 0 -- -- 69
2019-06-18 13:00:00 22.8 7 Norte 20 Norte 0 -- -- 75
2019-06-18 12:00:00 23 9 Norte 16 Norte 0 -- -- 75
2019-06-18 11:00:00 21.6 5 Norte 13 Norte 0 -- -- 80
2019-06-18 10:00:00 21.7 4 Nordeste 14 Nordeste 0 -- -- 78
2019-06-18 09:00:00 21.1 3 Noroeste 10 Nordeste 0 -- -- 75
2019-06-18 08:00:00 18.5 3 Sur 9 Sur 0 -- -- 79
2019-06-18 07:00:00 18 5 Sur 10 Sur 0 -- -- 78
2019-06-18 06:00:00 17 6 Sur 11 Sur 0 -- -- 81
2019-06-18 05:00:00 16.6 5 Sur 8 Sur 0 -- -- 81
2019-06-18 04:00:00 16.8 3 Sur 6 Sur 0 -- -- 79
2019-06-18 03:00:00 17.6 5 Sudeste 12 Sur 0 -- -- 76
2019-06-18 02:00:00 17.7 5 Sur 9 Sur 0 -- -- 77
2019-06-18 01:00:00 17.9 4 Sur 9 Sudeste 0 -- -- 77
2019-06-18 00:00:00 18.6 5 Sur 9 Sur 0 -- -- 77
2019-06-17 23:00:00 19.9 4 Este 13 Sur 0 -- -- 78
2019-06-17 22:00:00 20 7 Sur 15 Oeste 0 -- -- 79
2019-06-17 21:00:00 20.4 4 Nordeste 7 Norte 0 -- -- 81
2019-06-17 20:00:00 21.7 5 Nordeste 12 Noroeste 0 -- -- 75
2019-06-17 19:00:00 23.5 9 Noroeste 15 Noroeste 0 -- -- 68
2019-06-17 18:00:00 24 8 Norte 19 Norte 0 -- -- 66
2019-06-17 17:00:00 24.1 8 Norte 19 Noroeste 0 -- -- 64
2019-06-17 16:00:00 23.7 10 Norte 20 Norte 0 -- -- 64
2019-06-17 15:00:00 23.6 9 Norte 21 Norte 0 -- -- 58
2019-06-17 14:00:00 23.5 8 Norte 20 Norte 0 -- -- 57
2019-06-17 13:00:00 22.8 10 Norte 18 Nordeste 0 -- -- 58
2019-06-17 12:00:00 22.6 9 Norte 20 Norte 0 -- -- 60
2019-06-17 11:00:00 21.9 8 Norte 17 Norte 0 -- -- 62
2019-06-17 10:00:00 21.1 6 Norte 11 Norte 0 -- -- 62
2019-06-17 09:00:00 18.4 2 Sudoeste 4 Sudeste 0 -- -- 67
2019-06-17 08:00:00 13.5 3 Sur 5 Sur 0 -- -- 86
2019-06-17 07:00:00 13.3 6 Sudeste 9 Sudeste 0 -- -- 85
2019-06-17 06:00:00 13.6 5 Sur 8 Sur 0 -- -- 83
2019-06-17 05:00:00 13.9 4 Sur 8 Sur 0 -- -- 81
2019-06-17 04:00:00 14 5 Sur 9 Sur 0 -- -- 79
2019-06-17 03:00:00 14.5 5 Sur 10 Sur 0 -- -- 77
2019-06-17 02:00:00 15.1 5 Sur 10 Sur 0 -- -- 75
2019-06-17 01:00:00 15.5 4 Sur 10 Sur 0 -- -- 74
2019-06-17 00:00:00 15.9 4 Sur 8 Sur 0 -- -- 75
2019-06-16 23:00:00 16.2 4 Sur 7 Sur 0 -- -- 77
2019-06-16 22:00:00 17.4 3 Sur 4 Sudeste 0 -- -- 75
2019-06-16 21:00:00 18.8 2 Nordeste 8 Nordeste 0 -- -- 72
2019-06-16 20:00:00 20.1 3 Nordeste 13 Norte 0 -- -- 67
2019-06-16 19:00:00 21.6 5 Norte 17 Norte 0 -- -- 60
2019-06-16 18:00:00 22.1 8 Nordeste 18 Noroeste 0 -- -- 58
2019-06-16 17:00:00 22.4 9 Norte 20 Norte 0 -- -- 55
2019-06-16 16:00:00 22.7 9 Norte 19 Norte 0 -- -- 52
2019-06-16 15:00:00 22.3 9 Nordeste 20 Norte 0 -- -- 51
2019-06-16 14:00:00 21.7 10 Norte 19 Norte 0 -- -- 53
2019-06-16 13:00:00 21 10 Nordeste 20 Este 0 -- -- 52
2019-06-16 12:00:00 20.7 8 Nordeste 17 Nordeste 0 -- -- 64
2019-06-16 11:00:00 20.5 6 Nordeste 15 Norte 0 -- -- 62
2019-06-16 10:00:00 19.6 6 Nordeste 12 Norte 0 -- -- 70
2019-06-16 09:00:00 17.4 2 Sudoeste 5 Sudoeste 0 -- -- 76
2019-06-16 08:00:00 12.5 3 Sur 8 Sur 0 -- -- 93
2019-06-16 07:00:00 12 3 Sur 9 Sur 0 -- -- 90
2019-06-16 06:00:00 12.1 4 Sur 6 Sur 0 -- -- 89
2019-06-16 05:00:00 12.8 3 Sur 13 Sur 0 -- -- 84
2019-06-16 04:00:00 12.7 4 Sur 11 Sur 0 -- -- 83
2019-06-16 03:00:00 13.3 4 Sur 9 Oeste 0 -- -- 81
2019-06-16 02:00:00 14.7 5 Sudoeste 13 Sur 0 -- -- 75
2019-06-16 01:00:00 14.6 6 Sur 11 Sur 0 -- -- 77
2019-06-16 00:00:00 14.4 6 Sur 11 Sur 0 -- -- 80
2019-06-15 23:00:00 14.7 5 Sur 9 Sur 0 -- -- 85
2019-06-15 22:00:00 15.7 3 Sur 6 Sur 0 -- -- 82
2019-06-15 21:00:00 17.7 3 Este 8 Nordeste 0 -- -- 77
2019-06-15 20:00:00 18.9 4 Nordeste 13 Nordeste 0 -- -- 73
2019-06-15 19:00:00 19.4 4 Nordeste 9 Norte 0 -- -- 70
2019-06-15 18:00:00 19 4 Norte 13 Norte 0 -- -- 71
2019-06-15 17:00:00 19.3 5 Nordeste 15 Nordeste 0 -- -- 70
2019-06-15 16:00:00 19.8 8 Norte 21 Nordeste 0 -- -- 68
2019-06-15 15:00:00 20.3 8 Norte 15 Norte 0 -- -- 63
2019-06-15 14:00:00 19.6 7 Nordeste 15 Nordeste 0 -- -- 64
2019-06-15 13:00:00 19.6 7 Nordeste 15 Nordeste 0 -- -- 66
2019-06-15 12:00:00 19.5 7 Nordeste 19 Nordeste 0 -- -- 69
2019-06-15 11:00:00 19.4 7 Nordeste 19 Nordeste 0 -- -- 70
2019-06-15 10:00:00 20 9 Nordeste 19 Norte 0 -- -- 63
2019-06-15 09:00:00 19 4 Sur 12 Sur 0 -- -- 65
2019-06-15 08:00:00 15 6 Sur 13 Sur 0 -- -- 75
2019-06-15 07:00:00 15.3 5 Sur 14 Sur 0 -- -- 75
2019-06-15 06:00:00 15.7 6 Sur 14 Sur 0 -- -- 75
2019-06-15 05:00:00 16 5 Sur 11 Sur 0 -- -- 76
2019-06-15 04:00:00 15.9 5 Sur 10 Sur 0 -- -- 77
2019-06-15 03:00:00 15.8 4 Sur 8 Sur 0 -- -- 78
2019-06-15 02:00:00 16.5 0 Calma 9 Noroeste 0 -- -- 79
2019-06-15 01:00:00 17.2 3 Noroeste 8 Nordeste 0 -- -- 78
2019-06-15 00:00:00 16.6 3 Nordeste 9 Nordeste 0 -- -- 81
2019-06-14 23:00:00 16.5 2 Sudoeste 8 Sur 0 -- -- 79
2019-06-14 22:00:00 16.8 3 Sur 8 Sudeste 0 -- -- 76
2019-06-14 21:00:00 18.1 0 Calma 8 Norte 0 -- -- 70
2019-06-14 20:00:00 19.3 4 Norte 14 Norte 0 -- -- 64
2019-06-14 19:00:00 19.7 6 Nordeste 13 Norte 0 -- -- 67
2019-06-14 18:00:00 19.4 5 Nordeste 15 Nordeste 0 -- -- 67
2019-06-14 17:00:00 19.6 8 Norte 21 Nordeste 0 -- -- 70
2019-06-14 16:00:00 20.3 8 Nordeste 19 Nordeste 0 -- -- 67
2019-06-14 15:00:00 20.4 9 Nordeste 22 Norte 0 -- -- 65
2019-06-14 14:00:00 21.1 10 Nordeste 19 Norte 0 -- -- 61
2019-06-14 13:00:00 20.9 9 Norte 23 Norte 0 -- -- 63
2019-06-14 12:00:00 20.7 8 Nordeste 21 Nordeste 0 -- -- 61
2019-06-14 11:00:00 20.3 6 Nordeste 16 Nordeste 0 -- -- 61
2019-06-14 10:00:00 19.5 7 Nordeste 18 Norte 0 -- -- 67
2019-06-14 09:00:00 18.4 6 Nordeste 13 Nordeste 0 -- -- 74
2019-06-14 08:00:00 17.5 5 Norte 14 Nordeste 0 -- -- 77
2019-06-14 07:00:00 17 5 Nordeste 10 Norte 0 -- -- 81
2019-06-14 06:00:00 16.4 4 Sur 9 Sur 0 -- -- 76
2019-06-14 05:00:00 15.9 6 Sur 12 Sur 0 -- -- 76
2019-06-14 04:00:00 15.7 2 Sudeste 9 Sudoeste 0 -- -- 79
2019-06-14 03:00:00 16 3 Sudoeste 9 Sudoeste 0 -- -- 81
2019-06-14 02:00:00 16.3 2 Sudoeste 8 Norte 0 -- -- 81
2019-06-14 01:00:00 17.6 3 Noroeste 12 Nordeste 0 -- -- 79
2019-06-14 00:00:00 17.8 3 Oeste 12 Nordeste 0 -- -- 81
2019-06-13 23:00:00 18 4 Nordeste 17 Nordeste 0 -- -- 79
2019-06-13 22:00:00 17.9 5 Norte 16 Norte 0 -- -- 78
2019-06-13 21:00:00 18.1 2 Nordeste 10 Nordeste 0 -- -- 75
2019-06-13 20:00:00 18.5 6 Norte 15 Norte 0 -- -- 73
2019-06-13 19:00:00 19.2 6 Nordeste 20 Nordeste 0 -- -- 69
2019-06-13 18:00:00 19.6 12 Nordeste 22 Norte 0 -- -- 68
2019-06-13 17:00:00 20.9 10 Nordeste 21 Norte 0 -- -- 60
2019-06-13 16:00:00 21.7 9 Nordeste 19 Nordeste 0 -- -- 55
2019-06-13 15:00:00 21.3 10 Nordeste 19 Nordeste 0 -- -- 54
2019-06-13 14:00:00 20.9 10 Nordeste 22 Nordeste 0 -- -- 51
2019-06-13 13:00:00 20.8 8 Nordeste 21 Nordeste 0 -- -- 62
2019-06-13 12:00:00 20.8 8 Nordeste 22 Norte 0 -- -- 64
2019-06-13 11:00:00 19.6 9 Norte 21 Norte 0 -- -- 69
2019-06-13 10:00:00 18.5 10 Nordeste 23 Norte 0 -- -- 75
2019-06-13 09:00:00 17.9 7 Nordeste 18 Norte 0 -- -- 71
2019-06-13 08:00:00 17.3 6 Nordeste 28 Norte 0 -- -- 82
2019-06-13 07:00:00 17.3 10 Norte 22 Norte 0 -- -- 80
2019-06-13 06:00:00 17.1 10 Norte 24 Norte 0 -- -- 80
2019-06-13 05:00:00 16.8 3 Norte 10 Norte 0 -- -- 82
2019-06-13 04:00:00 17 6 Nordeste 19 Nordeste 0 -- -- 81
2019-06-13 03:00:00 17.3 4 Nordeste 20 Nordeste 0 -- -- 82
2019-06-13 02:00:00 17.4 8 Nordeste 26 Nordeste 0 -- -- 78
2019-06-13 01:00:00 17.5 10 Nordeste 21 Nordeste 0 -- -- 81
2019-06-13 00:00:00 17.6 10 Nordeste 22 Nordeste 0 -- -- 82
2019-06-12 23:00:00 17.7 7 Nordeste 23 Nordeste 0 -- -- 85
2019-06-12 22:00:00 17.9 10 Nordeste 21 Norte 0 -- -- 86
2019-06-12 21:00:00 18.2 8 Nordeste 21 Nordeste 0 -- -- 87
2019-06-12 20:00:00 18.5 10 Nordeste 24 Nordeste 0 -- -- 83
2019-06-12 19:00:00 19.1 12 Nordeste 26 Nordeste 0 -- -- 73
2019-06-12 18:00:00 20.7 9 Nordeste 23 Norte 0 -- -- 70
2019-06-12 17:00:00 20.1 9 Nordeste 24 Nordeste 0 -- -- 74
2019-06-12 16:00:00 19.8 11 Nordeste 23 Norte 0 -- -- 78
2019-06-12 15:00:00 20 9 Nordeste 20 Nordeste 0 -- -- 81
2019-06-12 14:00:00 18.6 6 Nordeste 24 Nordeste 0 -- -- 89
2019-06-12 13:00:00 17.6 6 Nordeste 27 Norte 0 -- -- 97
2019-06-12 12:00:00 17.4 8 Norte 27 Nordeste 0.8 -- -- 98
2019-06-12 11:00:00 17.3 8 Nordeste 27 Nordeste 0.4 -- -- 97
2019-06-12 10:00:00 17.6 7 Nordeste 19 Norte 0.4 -- -- 97
2019-06-12 09:00:00 17.1 4 Nordeste 26 Nordeste 0.6 -- -- 98
2019-06-12 08:00:00 16.6 8 Nordeste 26 Nordeste 2.4 -- -- 98
2019-06-12 07:00:00 16.9 8 Nordeste 26 Nordeste 0.2 -- -- 97
2019-06-12 06:00:00 17.6 6 Norte 23 Nordeste 0 -- -- 90
2019-06-12 05:00:00 17.6 8 Nordeste 21 Nordeste 0 -- -- 88
2019-06-12 04:00:00 17.3 5 Norte 26 Nordeste 0 -- -- 94
2019-06-12 03:00:00 18.1 6 Nordeste 26 Norte 0 -- -- 87
2019-06-12 02:00:00 18.4 8 Norte 23 Norte 0 -- -- 82
2019-06-12 01:00:00 18.2 7 Norte 22 Norte 0 -- -- 88
2019-06-12 00:00:00 18.4 10 Norte 31 Nordeste 0 -- -- 84
2019-06-11 23:00:00 18.4 9 Norte 23 Noroeste 0 -- -- 85
2019-06-11 22:00:00 18.3 8 Norte 22 Noroeste 0 -- -- 83
2019-06-11 21:00:00 18.3 9 Norte 22 Nordeste 0 -- -- 86
2019-06-11 20:00:00 18.5 9 Norte 24 Nordeste 0 -- -- 86
2019-06-11 19:00:00 19.1 9 Norte 22 Este 0 -- -- 84
2019-06-11 18:00:00 18.2 11 Norte 25 Este 0 -- -- 94
2019-06-11 17:00:00 19.5 9 Nordeste 27 Norte 0 -- -- 81
2019-06-11 16:00:00 20.7 10 Norte 28 Nordeste 0 -- -- 75
2019-06-11 15:00:00 21.7 13 Norte 36 Nordeste 0 -- -- 73
2019-06-11 14:00:00 21.9 12 Nordeste 27 Norte 0 -- -- 66
2019-06-11 13:00:00 19.7 10 Nordeste 28 Nordeste 0 -- -- 79
2019-06-11 12:00:00 20.5 9 Norte 24 Nordeste 0 -- -- 69
2019-06-11 11:00:00 20 7 Nordeste 20 Norte 0 -- -- 70
2019-06-11 10:00:00 18.6 6 Norte 18 Norte 0 -- -- 75
2019-06-11 09:00:00 17.9 9 Nordeste 23 Norte 0 -- -- 78
2019-06-11 08:00:00 17.5 7 Norte 26 Nordeste 0 -- -- 79
2019-06-11 07:00:00 17.4 9 Nordeste 27 Nordeste 0 -- -- 81
2019-06-11 06:00:00 17.4 8 Nordeste 21 Nordeste 0 -- -- 81
2019-06-11 05:00:00 17.2 7 Nordeste 24 Norte 0 -- -- 79
2019-06-11 04:00:00 17.4 7 Nordeste 28 Nordeste 0 -- -- 79
2019-06-11 03:00:00 17.4 9 Norte 24 Nordeste 0 -- -- 81
2019-06-11 02:00:00 17.5 7 Nordeste 22 Nordeste 0 -- -- 83
2019-06-11 01:00:00 17.7 9 Norte 25 Este 0 -- -- 78
2019-06-11 00:00:00 17.8 9 Nordeste 30 Norte 0 -- -- 81
2019-06-10 23:00:00 18.1 9 Norte 28 Norte 0 -- -- 84
2019-06-10 22:00:00 18.1 7 Norte 24 Nordeste 0 -- -- 83
2019-06-10 21:00:00 18.4 6 Norte 30 Nordeste 0 -- -- 80
2019-06-10 20:00:00 18.8 8 Norte 26 Nordeste 0 -- -- 80
2019-06-10 19:00:00 19.5 6 Nordeste 24 Nordeste 0 -- -- 73
2019-06-10 18:00:00 20 7 Norte 24 Nordeste 0 -- -- 72
2019-06-10 17:00:00 20.7 10 Norte 27 Nordeste 0 -- -- 68
2019-06-10 16:00:00 22.2 10 Nordeste 26 Este 0 -- -- 64
2019-06-10 15:00:00 21.9 9 Nordeste 24 Nordeste 0 -- -- 64
2019-06-10 14:00:00 21.7 9 Norte 24 Nordeste 0 -- -- 61
2019-06-10 13:00:00 21.4 8 Norte 18 Norte 0 -- -- 60
2019-06-10 12:00:00 20 9 Norte 19 Norte 0 -- -- 69
2019-06-10 11:00:00 18.9 8 Norte 19 Nordeste 0 -- -- 72
2019-06-10 10:00:00 18.3 7 Norte 18 Norte 0 -- -- 74
2019-06-10 09:00:00 17.9 6 Norte 22 Nordeste 0 -- -- 74
2019-06-10 08:00:00 17.5 5 Nordeste 22 Nordeste 0 -- -- 72
2019-06-10 07:00:00 17.4 6 Norte 21 Norte 0 -- -- 73
2019-06-10 06:00:00 17.5 7 Nordeste 20 Norte 0 -- -- 75
2019-06-10 05:00:00 17.6 5 Nordeste 17 Norte 0 -- -- 78
2019-06-10 04:00:00 17.5 6 Norte 20 Norte 0 -- -- 73
2019-06-10 03:00:00 17.5 7 Norte 22 Norte 0 -- -- 75
2019-06-10 02:00:00 17.6 8 Nordeste 21 Noroeste 0 -- -- 75
2019-06-10 01:00:00 17.7 8 Norte 26 Nordeste 0 -- -- 75
2019-06-10 00:00:00 17.8 9 Norte 23 Nordeste 0 -- -- 74
2019-06-09 23:00:00 17.8 7 Norte 25 Nordeste 0 -- -- 73
2019-06-09 22:00:00 18 8 Norte 23 Noroeste 0 -- -- 77
2019-06-09 21:00:00 18.1 8 Norte 22 Norte 0 -- -- 75
2019-06-09 20:00:00 18.3 7 Nordeste 20 Norte 0 -- -- 73
2019-06-09 19:00:00 19 10 Norte 21 Nordeste 0 -- -- 70
2019-06-09 18:00:00 19.5 9 Norte 25 Nordeste 0 -- -- 70
2019-06-09 17:00:00 20.2 10 Norte 29 Este 0 -- -- 67
2019-06-09 16:00:00 21.7 12 Norte 24 Norte 0 -- -- 62
2019-06-09 15:00:00 21.5 11 Norte 23 Nordeste 0 -- -- 57
2019-06-09 14:00:00 21.4 8 Norte 23 Nordeste 0 -- -- 62
2019-06-09 13:00:00 20.7 9 Norte 24 Norte 0 -- -- 60
2019-06-09 12:00:00 20.6 9 Norte 28 Norte 0 -- -- 55
2019-06-09 11:00:00 19.6 11 Norte 25 Norte 0 -- -- 61
2019-06-09 10:00:00 18.6 10 Nordeste 27 Nordeste 0 -- -- 66
2019-06-09 09:00:00 17.9 13 Norte 32 Nordeste 0 -- -- 73
2019-06-09 08:00:00 17.4 7 Norte 20 Norte 0 -- -- 77
2019-06-09 07:00:00 17.2 6 Norte 15 Norte 0 -- -- 74
2019-06-09 06:00:00 16.8 6 Norte 18 Nordeste 0 -- -- 72
2019-06-09 05:00:00 17.1 9 Nordeste 23 Norte 0 -- -- 77
2019-06-09 04:00:00 17.2 11 Nordeste 23 Nordeste 0 -- -- 78
2019-06-09 03:00:00 17.3 9 Nordeste 28 Nordeste 0 -- -- 78
2019-06-09 02:00:00 17.5 9 Nordeste 23 Nordeste 0 -- -- 75
2019-06-09 01:00:00 17.5 5 Nordeste 23 Noroeste 0 -- -- 77
2019-06-09 00:00:00 17.6 8 Norte 22 Nordeste 0 -- -- 75
2019-06-08 23:00:00 17.8 6 Nordeste 21 Nordeste 0 -- -- 75
2019-06-08 22:00:00 17.8 6 Nordeste 22 Norte 0 -- -- 77
2019-06-08 21:00:00 18.1 10 Norte 25 Norte 0 -- -- 78
2019-06-08 20:00:00 18.4 7 Nordeste 25 Nordeste 0 -- -- 74
2019-06-08 19:00:00 18.8 7 Norte 26 Nordeste 0 -- -- 71
2019-06-08 18:00:00 19.5 7 Norte 20 Nordeste 0 -- -- 67
2019-06-08 17:00:00 19.5 9 Nordeste 23 Norte 0 -- -- 70
2019-06-08 16:00:00 20 10 Nordeste 22 Nordeste 0 -- -- 70
2019-06-08 15:00:00 20.6 10 Nordeste 23 Norte 0 -- -- 69
2019-06-08 14:00:00 21.3 10 Norte 25 Norte 0 -- -- 66
2019-06-08 13:00:00 20.9 9 Nordeste 22 Norte 0 -- -- 68
2019-06-08 12:00:00 19.9 7 Norte 21 Norte 0 -- -- 75
2019-06-08 11:00:00 19.4 9 Nordeste 25 Nordeste 0 -- -- 77
2019-06-08 10:00:00 18.1 9 Norte 26 Norte 0 -- -- 91
2019-06-08 09:00:00 18.7 6 Norte 16 Norte 0 -- -- 83
2019-06-08 08:00:00 18 5 Nordeste 15 Norte 0 -- -- 91
2019-06-08 07:00:00 18.2 3 Este 13 Norte 0 -- -- 89
2019-06-08 06:00:00 17.9 4 Norte 23 Nordeste 0 -- -- 92
2019-06-08 05:00:00 18.1 8 Nordeste 26 Nordeste 0 -- -- 94
2019-06-08 04:00:00 18.6 6 Norte 16 Norte 0 -- -- 87
2019-06-08 03:00:00 18.8 5 Nordeste 16 Nordeste 0 -- -- 85
2019-06-08 02:00:00 18.7 3 Este 8 Norte 0 -- -- 82
2019-06-08 01:00:00 18.1 3 Nordeste 11 Norte 0 -- -- 84
2019-06-08 00:00:00 18.8 5 Nordeste 15 Norte 0 -- -- 85
2019-06-07 23:00:00 18.9 8 Norte 18 Nordeste 0 -- -- 84
2019-06-07 22:00:00 18.7 6 Norte 18 Nordeste 0 -- -- 82
2019-06-07 21:00:00 19 4 Norte 20 Nordeste 0 -- -- 77
2019-06-07 20:00:00 19.3 8 Norte 20 Nordeste 0 -- -- 75
2019-06-07 19:00:00 20.7 9 Norte 26 Nordeste 0 -- -- 70
2019-06-07 18:00:00 21.5 10 Nordeste 23 Nordeste 0 -- -- 65
2019-06-07 17:00:00 21.2 6 Nordeste 24 Nordeste 0 -- -- 61
2019-06-07 16:00:00 21.2 7 Nordeste 25 Nordeste 0 -- -- 67
2019-06-07 15:00:00 21.2 9 Nordeste 24 Nordeste 0 -- -- 63
2019-06-07 14:00:00 21.8 8 Nordeste 18 Nordeste 0 -- -- 54
2019-06-07 13:00:00 20.9 6 Nordeste 17 Nordeste 0 -- -- 60
2019-06-07 12:00:00 19.8 7 Norte 16 Norte 0 -- -- 70
2019-06-07 11:00:00 19.6 6 Nordeste 18 Norte 0 -- -- 71
2019-06-07 10:00:00 18.5 6 Norte 18 Norte 0 -- -- 76
2019-06-07 09:00:00 18.3 8 Nordeste 16 Nordeste 0 -- -- 74
2019-06-07 08:00:00 17.3 7 Nordeste 19 Norte 0 -- -- 77
2019-06-07 07:00:00 17.1 6 Norte 15 Norte 0 -- -- 83
2019-06-07 06:00:00 17.2 5 Norte 17 Nordeste 0 -- -- 80
2019-06-07 05:00:00 17.3 5 Nordeste 17 Norte 0 -- -- 77
2019-06-07 04:00:00 17.2 4 Nordeste 14 Norte 0 -- -- 76
2019-06-07 03:00:00 16.9 3 Norte 13 Norte 0 -- -- 78
2019-06-07 02:00:00 17.4 9 Norte 18 Nordeste 0 -- -- 76
2019-06-07 01:00:00 17.2 6 Nordeste 19 Nordeste 0 -- -- 73
2019-06-07 00:00:00 17.4 7 Nordeste 18 Nordeste 0 -- -- 72
2019-06-06 23:00:00 17.5 6 Norte 21 Nordeste 0 -- -- 71
2019-06-06 22:00:00 17.8 6 Nordeste 24 Nordeste 0 -- -- 72
2019-06-06 21:00:00 17.9 6 Nordeste 26 Nordeste 0 -- -- 68
2019-06-06 20:00:00 18.4 8 Nordeste 21 Nordeste 0 -- -- 66
2019-06-06 19:00:00 19 8 Nordeste 22 Norte 0 -- -- 66
2019-06-06 18:00:00 20 9 Nordeste 22 Nordeste 0 -- -- 65
2019-06-06 17:00:00 20.5 9 Norte 22 Norte 0 -- -- 63
2019-06-06 16:00:00 20.8 8 Norte 19 Norte 0 -- -- 63
2019-06-06 15:00:00 19.7 9 Norte 23 Nordeste 0 -- -- 68
2019-06-06 14:00:00 19.5 10 Norte 25 Norte 0 -- -- 67
2019-06-06 13:00:00 20.4 10 Norte 25 Nordeste 0 -- -- 62
2019-06-06 12:00:00 19.7 9 Nordeste 24 Norte 0 -- -- 63
2019-06-06 11:00:00 18.6 8 Nordeste 28 Nordeste 0 -- -- 67
2019-06-06 10:00:00 18.1 10 Nordeste 27 Nordeste 0 -- -- 69
2019-06-06 09:00:00 17.8 8 Nordeste 23 Nordeste 0 -- -- 71
2019-06-06 08:00:00 17.3 7 Nordeste 24 Nordeste 0 -- -- 76
2019-06-06 07:00:00 17.2 8 Norte 30 Nordeste 0 -- -- 74
2019-06-06 06:00:00 17.2 8 Nordeste 27 Norte 0 -- -- 81
2019-06-06 05:00:00 17.5 10 Nordeste 22 Norte 0 -- -- 85
2019-06-06 04:00:00 17.7 9 Nordeste 22 Norte 0 -- -- 82
2019-06-06 03:00:00 17.7 7 Norte 20 Este 0 -- -- 83
2019-06-06 02:00:00 17.8 7 Nordeste 19 Nordeste 0 -- -- 85
2019-06-06 01:00:00 18 6 Nordeste 20 Nordeste 0 -- -- 83
2019-06-06 00:00:00 18.1 8 Nordeste 23 Nordeste 0 -- -- 82
2019-06-05 23:00:00 18.2 13 Norte 29 Norte 0 -- -- 85
2019-06-05 22:00:00 18.3 10 Nordeste 23 Nordeste 0 -- -- 84
2019-06-05 21:00:00 18.5 9 Nordeste 23 Norte 0 -- -- 85
2019-06-05 20:00:00 18.7 9 Norte 22 Norte 0 -- -- 82
2019-06-05 19:00:00 19.2 7 Norte 23 Norte 0 -- -- 80
2019-06-05 18:00:00 19.7 8 Norte 20 Norte 0 -- -- 81
2019-06-05 17:00:00 20.2 6 Norte 24 Nordeste 0 -- -- 79
2019-06-05 16:00:00 21 7 Norte 22 Nordeste 0 -- -- 73
2019-06-05 15:00:00 22.4 10 Norte 22 Norte 0 -- -- 63
2019-06-05 14:00:00 21.8 8 Nordeste 24 Norte 0 -- -- 70
2019-06-05 13:00:00 20.9 7 Nordeste 19 Noroeste 0 -- -- 76
2019-06-05 12:00:00 19.9 7 Norte 22 Norte 0 -- -- 84
2019-06-05 11:00:00 20.2 7 Norte 27 Norte 0 -- -- 82
2019-06-05 10:00:00 20.2 9 Nordeste 25 Nordeste 0 -- -- 73
2019-06-05 09:00:00 20.2 9 Nordeste 19 Norte 0 -- -- 74
2019-06-05 08:00:00 18.6 6 Nordeste 13 Nordeste 0 -- -- 82
2019-06-05 07:00:00 18 4 Este 11 Sudeste 0 -- -- 85
2019-06-05 06:00:00 18.3 5 Nordeste 16 Nordeste 0 -- -- 85
2019-06-05 05:00:00 18.7 6 Norte 25 Nordeste 0 -- -- 84
2019-06-05 04:00:00 18.9 10 Norte 23 Nordeste 0 -- -- 84
2019-06-05 03:00:00 19.1 7 Norte 25 Noroeste 0 -- -- 80
2019-06-05 02:00:00 18.9 9 Nordeste 27 Nordeste 0 -- -- 82
2019-06-05 01:00:00 18.9 5 Nordeste 21 Nordeste 0 -- -- 82
2019-06-05 00:00:00 19 3 Nordeste 16 Nordeste 0 -- -- 80
2019-06-04 23:00:00 19.1 5 Norte 20 Este 0 -- -- 80
2019-06-04 22:00:00 19 8 Nordeste 26 Nordeste 0 -- -- 81
2019-06-04 21:00:00 19.2 8 Nordeste 19 Nordeste 0 -- -- 80
2019-06-04 20:00:00 20 5 Nordeste 18 Nordeste 0 -- -- 77
2019-06-04 19:00:00 21.6 7 Nordeste 20 Nordeste 0 -- -- 72
2019-06-04 18:00:00 21.6 9 Nordeste 21 Nordeste 0 -- -- 74
2019-06-04 17:00:00 21.8 9 Nordeste 25 Nordeste 0 -- -- 72
2019-06-04 16:00:00 21.8 12 Nordeste 24 Norte 0 -- -- 72
2019-06-04 15:00:00 21.6 12 Nordeste 26 Nordeste 0 -- -- 74
2019-06-04 14:00:00 22.1 9 Nordeste 21 Norte 0 -- -- 71
2019-06-04 13:00:00 22.5 10 Nordeste 19 Nordeste 0 -- -- 63
2019-06-04 12:00:00 23.6 9 Nordeste 21 Nordeste 0 -- -- 47
2019-06-04 11:00:00 22.8 7 Nordeste 15 Nordeste 0 -- -- 44
2019-06-04 10:00:00 22 7 Nordeste 14 Nordeste 0 -- -- 69
2019-06-04 09:00:00 20.3 5 Nordeste 9 Este 0 -- -- 72
2019-06-04 08:00:00 15.9 4 Sudeste 9 Este 0 -- -- 61
2019-06-04 07:00:00 15.6 4 Este 10 Sur 0 -- -- 55
2019-06-04 06:00:00 17.5 5 Sudeste 9 Sudeste 0 -- -- 48
2019-06-04 05:00:00 16.3 4 Sur 10 Sur 0 -- -- 51
2019-06-04 04:00:00 17.1 4 Sudeste 12 Sur 0 -- -- 51
2019-06-04 03:00:00 18.4 5 Sudeste 18 Sudoeste 0 -- -- 48
2019-06-04 02:00:00 18.2 3 Sudeste 9 Nordeste 0 -- -- 64
2019-06-04 01:00:00 18.6 5 Este 11 Nordeste 0 -- -- 76
2019-06-04 00:00:00 18.1 6 Sudeste 13 Sur 0 -- -- 67
2019-06-03 23:00:00 18.9 4 Este 10 Este 0 -- -- 88
2019-06-03 22:00:00 19.4 5 Este 11 Este 0 -- -- 86
2019-06-03 21:00:00 20.3 6 Este 15 Este 0 -- -- 81
2019-06-03 20:00:00 21.1 3 Norte 14 Nordeste 0 -- -- 78
2019-06-03 19:00:00 22 7 Nordeste 15 Nordeste 0 -- -- 76
2019-06-03 18:00:00 22.4 8 Nordeste 21 Nordeste 0 -- -- 74
2019-06-03 17:00:00 22.6 9 Nordeste 23 Nordeste 0 -- -- 75
2019-06-03 16:00:00 22.8 12 Nordeste 21 Nordeste 0 -- -- 73
2019-06-03 15:00:00 23.1 10 Nordeste 21 Nordeste 0 -- -- 70
2019-06-03 14:00:00 22.8 11 Nordeste 21 Nordeste 0 -- -- 69
2019-06-03 13:00:00 24.2 8 Nordeste 18 Nordeste 0 -- -- 62
2019-06-03 12:00:00 25.2 6 Nordeste 15 Nordeste 0 -- -- 56
2019-06-03 11:00:00 24.2 9 Nordeste 15 Nordeste 0 -- -- 60
2019-06-03 10:00:00 23.6 5 Nordeste 15 Nordeste 0 -- -- 58
2019-06-03 09:00:00 21.4 4 Sudeste 10 Sur 0 -- -- 48
2019-06-03 08:00:00 18.2 5 Este 10 Este 0 -- -- 82
2019-06-03 07:00:00 16.3 5 Este 10 Este 0 -- -- 68
2019-06-03 06:00:00 17.1 4 Sudeste 9 Nordeste 0 -- -- 65
2019-06-03 05:00:00 18 5 Este 13 Sur 0 -- -- 55
2019-06-03 04:00:00 17 3 Sudeste 12 Sur 0 -- -- 70
2019-06-03 03:00:00 16.6 3 Este 7 Sudeste 0 -- -- 89
2019-06-03 02:00:00 17.3 3 Sur 6 Sur 0 -- -- 89
2019-06-03 01:00:00 17.8 6 Sur 9 Sur 0 -- -- 90
2019-06-03 00:00:00 18.7 6 Nordeste 12 Este 0 -- -- 90
2019-06-02 23:00:00 18.8 4 Sudeste 5 Este 0 -- -- 88
2019-06-02 22:00:00 19.3 2 Este 6 Nordeste 0 -- -- 88
2019-06-02 21:00:00 19.8 3 Sudoeste 11 Nordeste 0 -- -- 86
2019-06-02 20:00:00 20.1 5 Nordeste 17 Nordeste 0 -- -- 83
2019-06-02 19:00:00 21.6 9 Nordeste 17 Norte 0 -- -- 76
2019-06-02 18:00:00 22.1 10 Nordeste 18 Nordeste 0 -- -- 74
2019-06-02 17:00:00 22.9 6 Nordeste 23 Este 0 -- -- 70
2019-06-02 16:00:00 22.1 11 Nordeste 22 Nordeste 0 -- -- 76
2019-06-02 15:00:00 22.1 10 Nordeste 25 Nordeste 0 -- -- 73
2019-06-02 14:00:00 21.3 11 Nordeste 25 Nordeste 0 -- -- 77
2019-06-02 13:00:00 21.4 10 Nordeste 19 Nordeste 0 -- -- 76
2019-06-02 12:00:00 21.8 7 Nordeste 14 Norte 0 -- -- 75
2019-06-02 11:00:00 20.7 7 Nordeste 17 Nordeste 0 -- -- 79
2019-06-02 10:00:00 20.3 5 Nordeste 12 Nordeste 0 -- -- 79
2019-06-02 09:00:00 18.6 3 Este 7 Sur 0 -- -- 86
2019-06-02 08:00:00 15.7 5 Sur 9 Sudeste 0 -- -- 93
2019-06-02 07:00:00 15.9 5 Sur 10 Sudeste 0 -- -- 91
2019-06-02 06:00:00 17.1 3 Sur 7 Sur 0 -- -- 88
2019-06-02 05:00:00 16.3 3 Sur 9 Sur 0 -- -- 92
2019-06-02 04:00:00 15.7 4 Sur 8 Sur 0 -- -- 89
2019-06-02 03:00:00 16.5 4 Sudeste 9 Sur 0 -- -- 86
2019-06-02 02:00:00 18.1 3 Sudeste 8 Sudoeste 0 -- -- 80
2019-06-02 01:00:00 18.9 3 Oeste 9 Sudoeste 0 -- -- 80
2019-06-02 00:00:00 18.6 3 Nordeste 8 Este 0 -- -- 79
2019-06-01 23:00:00 18.9 2 Norte 5 Nordeste 0 -- -- 80
2019-06-01 22:00:00 19.1 2 Nordeste 10 Nordeste 0 -- -- 81
2019-06-01 21:00:00 19.1 5 Nordeste 12 Nordeste 0 -- -- 82
2019-06-01 20:00:00 19.8 5 Nordeste 14 Nordeste 0 -- -- 81
2019-06-01 19:00:00 20.5 8 Nordeste 21 Nordeste 0 -- -- 77
2019-06-01 18:00:00 21.4 9 Nordeste 22 Nordeste 0 -- -- 73
2019-06-01 17:00:00 21.6 10 Nordeste 23 Nordeste 0 -- -- 74
2019-06-01 16:00:00 21.4 10 Nordeste 22 Nordeste 0 -- -- 74
2019-06-01 15:00:00 21.7 9 Nordeste 20 Norte 0 -- -- 74
2019-06-01 14:00:00 21.6 7 Nordeste 18 Nordeste 0 -- -- 74
2019-06-01 13:00:00 21.5 9 Nordeste 19 Nordeste 0 -- -- 72
2019-06-01 12:00:00 20.2 8 Norte 15 Norte 0 -- -- 76
2019-06-01 11:00:00 19.3 4 Nordeste 14 Norte 0 -- -- 80
2019-06-01 10:00:00 18.6 3 Nordeste 12 Este 0 -- -- 82
2019-06-01 09:00:00 16.8 5 Este 12 Nordeste 0 -- -- 89
2019-06-01 08:00:00 14.4 4 Sur 8 Sur 0 -- -- 94
2019-06-01 07:00:00 14.1 6 Sur 9 Sur 0 -- -- 92
2019-06-01 06:00:00 14.6 5 Sur 9 Sudeste 0 -- -- 90
2019-06-01 05:00:00 15.2 5 Sur 12 Sudoeste 0 -- -- 90
2019-06-01 04:00:00 15.2 5 Sur 8 Sur 0 -- -- 91
2019-06-01 03:00:00 15.8 3 Sur 11 Sur 0 -- -- 86
2019-06-01 02:00:00 17.1 4 Sur 6 Sur 0 -- -- 84
2019-06-01 01:00:00 17.3 4 Sur 8 Sur 0 -- -- 86
2019-06-01 00:00:00 17 0 Calma 5 Sudeste 0 -- -- 86
2019-05-31 23:00:00 17 2 Sudeste 8 Sudeste 0 -- -- 85
2019-05-31 22:00:00 18.1 3 Este 8 Sudeste 0 -- -- 84
2019-05-31 21:00:00 18.9 3 Este 10 Nordeste 0 -- -- 81
2019-05-31 20:00:00 19.7 5 Este 16 Nordeste 0 -- -- 79
2019-05-31 19:00:00 20.8 9 Nordeste 20 Nordeste 0 -- -- 73
2019-05-31 18:00:00 21.9 8 Nordeste 22 Norte 0 -- -- 69
2019-05-31 17:00:00 22 10 Nordeste 23 Nordeste 0 -- -- 69
2019-05-31 16:00:00 21.1 13 Nordeste 23 Nordeste 0 -- -- 69
2019-05-31 15:00:00 21.5 10 Nordeste 30 Nordeste 0 -- -- 68
2019-05-31 14:00:00 21.4 11 Nordeste 22 Norte 0 -- -- 68
2019-05-31 13:00:00 21.5 9 Este 23 Nordeste 0 -- -- 68
2019-05-31 12:00:00 20.8 9 Nordeste 21 Nordeste 0 -- -- 69
2019-05-31 11:00:00 20 8 Este 19 Sudeste 0 -- -- 71
2019-05-31 10:00:00 19.2 6 Norte 15 Nordeste 0 -- -- 73
2019-05-31 09:00:00 17.4 4 Sudoeste 6 Sudoeste 0 -- -- 79
2019-05-31 08:00:00 14 5 Sur 10 Sur 0 -- -- 89
2019-05-31 07:00:00 14.3 6 Sur 11 Sur 0 -- -- 88
2019-05-31 06:00:00 14.1 5 Sur 8 Sur 0 -- -- 88
2019-05-31 05:00:00 15 5 Sur 12 Sur 0 -- -- 84
2019-05-31 04:00:00 15.2 8 Sur 11 Sur 0 -- -- 87
2019-05-31 03:00:00 14 3 Sur 9 Sur 0 -- -- 87
2019-05-31 02:00:00 14.3 4 Sur 8 Sur 0 -- -- 86
2019-05-31 01:00:00 15.4 3 Sur 9 Sur 0 -- -- 82
2019-05-31 00:00:00 16.8 5 Sur 8 Sudoeste 0 -- -- 77
2019-05-30 23:00:00 17.7 3 Oeste 12 Noroeste 0 -- -- 74
2019-05-30 22:00:00 18.4 3 Este 15 Este 0 -- -- 76
2019-05-30 21:00:00 18.7 5 Noroeste 17 Norte 0 -- -- 75
2019-05-30 20:00:00 19.2 6 Norte 18 Noroeste 0 -- -- 75
2019-05-30 19:00:00 20 9 Nordeste 23 Nordeste 0 -- -- 72
2019-05-30 18:00:00 21.2 9 Nordeste 21 Norte 0 -- -- 68
2019-05-30 17:00:00 21.3 11 Nordeste 25 Nordeste 0 -- -- 67
2019-05-30 16:00:00 20.9 10 Nordeste 23 Nordeste 0 -- -- 67
2019-05-30 15:00:00 20.6 13 Nordeste 24 Nordeste 0 -- -- 67
2019-05-30 14:00:00 21.1 8 Nordeste 25 Norte 0 -- -- 65
2019-05-30 13:00:00 21 9 Nordeste 22 Norte 0 -- -- 65
2019-05-30 12:00:00 20.4 8 Nordeste 21 Nordeste 0 -- -- 66
2019-05-30 11:00:00 20.1 8 Nordeste 22 Nordeste 0 -- -- 67
2019-05-30 10:00:00 19.1 7 Norte 16 Este 0 -- -- 71
2019-05-30 09:00:00 17.2 4 Sur 11 Sur 0 -- -- 77
2019-05-30 08:00:00 16.5 6 Sur 11 Sur 0 -- -- 76
2019-05-30 07:00:00 16.5 5 Sur 12 Sur 0 -- -- 75
2019-05-30 06:00:00 16.6 5 Sur 13 Sur 0 -- -- 74
2019-05-30 05:00:00 16.8 6 Sur 11 Sur 0 -- -- 75
2019-05-30 04:00:00 16.7 6 Sur 12 Sudeste 0 -- -- 73
2019-05-30 03:00:00 17 6 Sur 13 Sudoeste 0 -- -- 73
2019-05-30 02:00:00 17.5 5 Sur 10 Sudoeste 0 -- -- 71
2019-05-30 01:00:00 17.7 5 Sur 9 Sudoeste 0 -- -- 69
2019-05-30 00:00:00 17.9 2 Oeste 12 Norte 0 -- -- 75
2019-05-29 23:00:00 18.1 4 Norte 12 Norte 0 -- -- 75
2019-05-29 22:00:00 18.2 3 Nordeste 10 Sudoeste 0 -- -- 79
2019-05-29 21:00:00 18.3 5 Nordeste 14 Nordeste 0 -- -- 78
2019-05-29 20:00:00 19.2 6 Norte 15 Norte 0 -- -- 73
2019-05-29 19:00:00 20.8 6 Nordeste 19 Nordeste 0 -- -- 68
2019-05-29 18:00:00 20.9 9 Nordeste 21 Nordeste 0 -- -- 66
2019-05-29 17:00:00 20.9 8 Nordeste 23 Nordeste 0 -- -- 66
2019-05-29 16:00:00 21.3 8 Nordeste 23 Este 0 -- -- 64
2019-05-29 15:00:00 20.8 10 Nordeste 23 Noroeste 0 -- -- 66
2019-05-29 14:00:00 21.1 10 Norte 23 Norte 0 -- -- 65
2019-05-29 13:00:00 19.6 9 Nordeste 20 Nordeste 0 -- -- 71
2019-05-29 12:00:00 19 8 Nordeste 19 Norte 0 -- -- 74
2019-05-29 11:00:00 18.3 4 Este 13 Norte 0 -- -- 77
2019-05-29 10:00:00 18 5 Nordeste 12 Nordeste 0 -- -- 78
2019-05-29 09:00:00 17.7 2 Sur 12 Sur 0 -- -- 76
2019-05-29 08:00:00 16.8 8 Sur 14 Sur 0 -- -- 76
2019-05-29 07:00:00 16.7 6 Sur 11 Sur 0 -- -- 76
2019-05-29 06:00:00 17 5 Sur 13 Sur 0 -- -- 75
2019-05-29 05:00:00 17.4 3 Sudoeste 10 Sur 0 -- -- 74
2019-05-29 04:00:00 17.6 3 Nordeste 10 Sur 0 -- -- 73
2019-05-29 03:00:00 17.9 3 Sudeste 12 Sudeste 0 -- -- 76
2019-05-29 02:00:00 18.2 4 Sur 14 Este 0 -- -- 73
2019-05-29 01:00:00 18.4 3 Sur 8 Sudoeste 0 -- -- 73
2019-05-29 00:00:00 18.3 5 Nordeste 13 Nordeste 0 -- -- 75
2019-05-28 23:00:00 18.4 6 Nordeste 13 Nordeste 0 -- -- 76
2019-05-28 22:00:00 18.5 7 Nordeste 15 Nordeste 0 -- -- 76
2019-05-28 21:00:00 18.7 7 Nordeste 16 Nordeste 0 -- -- 77
2019-05-28 20:00:00 19.1 6 Nordeste 17 Nordeste 0 -- -- 77
2019-05-28 19:00:00 19.8 7 Norte 21 Nordeste 0 -- -- 73
2019-05-28 18:00:00 21 9 Nordeste 22 Este 0 -- -- 72
2019-05-28 17:00:00 21.6 11 Nordeste 21 Nordeste 0 -- -- 69
2019-05-28 16:00:00 21.7 8 Nordeste 19 Nordeste 0 -- -- 68
2019-05-28 15:00:00 21 8 Nordeste 20 Norte 0 -- -- 72
2019-05-28 14:00:00 20.6 11 Nordeste 24 Norte 0 -- -- 72
2019-05-28 13:00:00 20.6 8 Norte 21 Nordeste 0 -- -- 71
2019-05-28 12:00:00 20.5 8 Norte 19 Nordeste 0 -- -- 73
2019-05-28 11:00:00 19.2 6 Nordeste 15 Norte 0 -- -- 78
2019-05-28 10:00:00 18.6 3 Este 11 Norte 0 -- -- 79
2019-05-28 09:00:00 18.2 2 Este 10 Nordeste 0 -- -- 78
2019-05-28 08:00:00 17.9 3 Sudoeste 11 Norte 0 -- -- 79
2019-05-28 07:00:00 17.8 0 Calma 18 Norte 0 -- -- 81
2019-05-28 06:00:00 17.8 3 Norte 14 Nordeste 0 -- -- 81
2019-05-28 05:00:00 17.9 3 Sur 7 Sudoeste 0 -- -- 79
2019-05-28 04:00:00 17.8 4 Sur 8 Sudeste 0 -- -- 78
2019-05-28 03:00:00 17.7 3 Este 11 Sur 0 -- -- 78
2019-05-28 02:00:00 17.3 5 Sur 9 Sur 0 -- -- 79
2019-05-28 01:00:00 17.8 3 Sudeste 11 Sur 0 -- -- 79
2019-05-28 00:00:00 18.6 2 Sur 6 Noroeste 0 -- -- 76